createdAt,value
2023-05-08T00:00:25.941Z,95.26
2023-05-08T00:01:25.934Z,95.26
2023-05-08T00:02:25.930Z,95.41
2023-05-08T00:03:26.079Z,95.62
2023-05-08T00:04:25.887Z,95.72
2023-05-08T00:05:25.860Z,95.82
2023-05-08T00:06:25.888Z,96.02
2023-05-08T00:07:25.835Z,96.12
2023-05-08T00:08:25.821Z,96.23
2023-05-08T00:09:25.833Z,96.23
2023-05-08T00:10:25.785Z,96.33
2023-05-08T00:11:25.792Z,96.33
2023-05-08T00:12:25.784Z,96.33
2023-05-08T00:13:25.953Z,96.33
2023-05-08T00:14:25.786Z,96.33
2023-05-08T00:15:25.755Z,96.33
2023-05-08T00:16:25.812Z,96.43
2023-05-08T00:17:25.759Z,96.43
2023-05-08T00:18:25.700Z,96.43
2023-05-08T00:19:25.682Z,96.43
2023-05-08T00:20:25.692Z,96.43
2023-05-08T00:21:25.663Z,96.43
2023-05-08T00:22:25.655Z,96.43
2023-05-08T00:23:25.628Z,96.43
2023-05-08T00:24:25.658Z,96.43
2023-05-08T00:25:25.662Z,96.43
2023-05-08T00:26:25.626Z,96.43
2023-05-08T00:27:25.593Z,96.53
2023-05-08T00:28:25.582Z,96.47
2023-05-08T00:29:25.578Z,96.47
2023-05-08T00:30:25.546Z,96.47
2023-05-08T00:31:25.583Z,96.47
2023-05-08T00:32:25.654Z,96.47
2023-05-08T00:33:25.513Z,96.47
2023-05-08T00:34:25.496Z,96.37
2023-05-08T00:35:25.492Z,96.27
2023-05-08T00:36:25.515Z,96.17
2023-05-08T00:37:25.494Z,96.17
2023-05-08T00:38:25.446Z,96.07
2023-05-08T00:39:25.454Z,96.07
2023-05-08T00:40:25.414Z,96.07
2023-05-08T00:41:25.429Z,96.07
2023-05-08T00:42:25.389Z,96.07
2023-05-08T00:43:25.396Z,96.07
2023-05-08T00:44:25.388Z,96.07
2023-05-08T00:45:25.368Z,96.07
2023-05-08T00:46:25.377Z,96.17
2023-05-08T00:47:25.373Z,96.17
2023-05-08T00:48:25.387Z,96.07
2023-05-08T00:49:25.318Z,96.11
2023-05-08T00:50:25.578Z,96.07
2023-05-08T00:51:25.310Z,96.07
2023-05-08T00:52:25.264Z,96.07
2023-05-08T00:53:25.297Z,96.11
2023-05-08T00:54:25.293Z,96.11
2023-05-08T00:55:25.303Z,96.11
2023-05-08T00:56:25.223Z,96.01
2023-05-08T00:57:25.231Z,96.01
2023-05-08T00:58:25.204Z,96.11
2023-05-08T00:59:25.376Z,96.22
2023-05-08T01:00:25.164Z,96.22
2023-05-08T01:01:25.256Z,96.22
2023-05-08T01:02:25.211Z,96.22
2023-05-08T01:03:25.242Z,96.22
2023-05-08T01:04:25.119Z,96.22
2023-05-08T01:05:25.113Z,96.22
2023-05-08T01:06:25.100Z,96.31
2023-05-08T01:07:25.078Z,96.31
2023-05-08T01:08:25.080Z,96.22
2023-05-08T01:09:25.084Z,96.22
2023-05-08T01:10:25.075Z,96.11
2023-05-08T01:11:25.033Z,96.01
2023-05-08T01:12:25.025Z,96.01
2023-05-08T01:13:25.087Z,96.01
2023-05-08T01:14:25.008Z,96.01
2023-05-08T01:15:24.986Z,96.01
2023-05-08T01:16:25.011Z,95.91
2023-05-08T01:17:25.011Z,95.91
2023-05-08T01:18:24.945Z,95.81
2023-05-08T01:19:24.946Z,95.81
2023-05-08T01:20:24.935Z,95.81
2023-05-08T01:21:24.907Z,95.91
2023-05-08T01:22:24.902Z,95.91
2023-05-08T01:23:24.885Z,96.06
2023-05-08T01:24:24.908Z,96.06
2023-05-08T01:25:24.861Z,96.15
2023-05-08T01:26:24.859Z,96.15
2023-05-08T01:27:24.837Z,96.15
2023-05-08T01:28:24.821Z,96.15
2023-05-08T01:29:24.821Z,96.15
2023-05-08T01:30:24.842Z,96.15
2023-05-08T01:31:24.813Z,96.15
2023-05-08T01:32:24.818Z,96.06
2023-05-08T01:33:24.909Z,95.95
2023-05-08T01:34:24.746Z,95.95
2023-05-08T01:35:24.764Z,95.95
2023-05-08T01:36:24.790Z,95.95
2023-05-08T01:37:24.703Z,95.95
2023-05-08T01:38:24.745Z,95.95
2023-05-08T01:39:24.682Z,95.95
2023-05-08T01:40:24.669Z,95.95
2023-05-08T01:41:24.676Z,95.95
2023-05-08T01:42:24.645Z,95.95
2023-05-08T01:43:24.631Z,95.95
2023-05-08T01:44:24.625Z,95.95
2023-05-08T01:45:24.619Z,95.95
2023-05-08T01:46:24.661Z,95.95
2023-05-08T01:47:24.623Z,95.95
2023-05-08T01:48:24.571Z,95.95
2023-05-08T01:49:24.579Z,95.85
2023-05-08T01:50:24.553Z,95.85
2023-05-08T01:51:24.532Z,95.85
2023-05-08T01:52:24.646Z,95.85
2023-05-08T01:53:24.525Z,95.75
2023-05-08T01:54:24.504Z,95.65
2023-05-08T01:55:24.500Z,95.54
2023-05-08T01:56:24.469Z,95.54
2023-05-08T01:57:24.456Z,95.65
2023-05-08T01:58:24.473Z,95.65
2023-05-08T01:59:24.439Z,95.65
2023-05-08T02:00:24.435Z,95.75
2023-05-08T02:01:24.466Z,95.75
2023-05-08T02:02:24.457Z,95.75
2023-05-08T02:03:24.456Z,95.75
2023-05-08T02:04:24.395Z,95.65
2023-05-08T02:05:24.364Z,95.75
2023-05-08T02:06:24.342Z,95.65
2023-05-08T02:07:24.343Z,95.65
2023-05-08T02:08:24.352Z,95.75
2023-05-08T02:09:24.331Z,95.75
2023-05-08T02:10:24.319Z,95.75
2023-05-08T02:11:24.287Z,95.75
2023-05-08T02:12:24.265Z,95.75
2023-05-08T02:13:24.295Z,95.75
2023-05-08T02:14:24.250Z,95.75
2023-05-08T02:15:24.244Z,95.79
2023-05-08T02:16:24.298Z,95.75
2023-05-08T02:17:24.253Z,95.79
2023-05-08T02:18:24.239Z,95.75
2023-05-08T02:19:24.200Z,95.90
2023-05-08T02:20:24.188Z,95.85
2023-05-08T02:21:24.178Z,95.85
2023-05-08T02:22:24.144Z,95.85
2023-05-08T02:23:24.131Z,95.90
2023-05-08T02:24:24.139Z,95.90
2023-05-08T02:25:24.118Z,95.90
2023-05-08T02:26:24.097Z,96.00
2023-05-08T02:27:24.085Z,96.00
2023-05-08T02:28:24.082Z,96.10
2023-05-08T02:29:24.071Z,96.10
2023-05-08T02:30:24.088Z,96.10
2023-05-08T02:31:24.172Z,96.20
2023-05-08T02:32:24.114Z,96.20
2023-05-08T02:33:24.008Z,96.20
2023-05-08T02:34:24.011Z,96.20
2023-05-08T02:35:23.997Z,96.20
2023-05-08T02:36:23.968Z,96.20
2023-05-08T02:37:23.984Z,96.20
2023-05-08T02:38:23.951Z,96.20
2023-05-08T02:39:23.935Z,96.20
2023-05-08T02:40:23.925Z,96.20
2023-05-08T02:41:23.922Z,96.20
2023-05-08T02:42:23.926Z,96.20
2023-05-08T02:43:23.992Z,96.20
2023-05-08T02:44:23.875Z,96.30
2023-05-08T02:45:23.857Z,96.30
2023-05-08T02:46:23.875Z,96.30
2023-05-08T02:47:23.953Z,96.41
2023-05-08T02:48:23.827Z,96.41
2023-05-08T02:49:23.819Z,96.41
2023-05-08T02:50:23.806Z,96.41
2023-05-08T02:51:23.802Z,96.51
2023-05-08T02:52:23.819Z,96.51
2023-05-08T02:53:23.759Z,96.51
2023-05-08T02:54:23.732Z,96.61
2023-05-08T02:55:23.744Z,96.61
2023-05-08T02:56:23.721Z,96.71
2023-05-08T02:57:23.829Z,96.92
2023-05-08T02:58:23.703Z,96.92
2023-05-08T02:59:23.679Z,97.02
2023-05-08T03:00:23.684Z,97.02
2023-05-08T03:01:23.675Z,97.12
2023-05-08T03:02:23.859Z,97.12
2023-05-08T03:03:23.693Z,97.12
2023-05-08T03:04:23.608Z,97.22
2023-05-08T03:05:23.595Z,97.22
2023-05-08T03:06:23.581Z,97.22
2023-05-08T03:07:23.626Z,97.32
2023-05-08T03:08:24.474Z,97.32
2023-05-08T03:09:23.540Z,97.32
2023-05-08T03:10:23.568Z,97.32
2023-05-08T03:11:23.545Z,97.32
2023-05-08T03:12:23.507Z,97.32
2023-05-08T03:13:23.593Z,97.42
2023-05-08T03:14:23.552Z,97.42
2023-05-08T03:15:23.483Z,97.42
2023-05-08T03:16:23.579Z,97.42
2023-05-08T03:17:23.462Z,97.42
2023-05-08T03:18:23.438Z,97.57
2023-05-08T03:19:23.568Z,97.57
2023-05-08T03:20:23.591Z,97.67
2023-05-08T03:21:23.397Z,97.67
2023-05-08T03:22:23.389Z,97.78
2023-05-08T03:23:23.389Z,97.78
2023-05-08T03:24:23.364Z,97.88
2023-05-08T03:25:23.335Z,97.98
2023-05-08T03:26:23.437Z,97.98
2023-05-08T03:27:23.316Z,97.98
2023-05-08T03:28:23.335Z,97.98
2023-05-08T03:29:23.308Z,98.08
2023-05-08T03:30:23.270Z,98.18
2023-05-08T03:31:23.341Z,98.18
2023-05-08T03:32:23.296Z,98.18
2023-05-08T03:33:23.259Z,98.18
2023-05-08T03:34:23.223Z,98.18
2023-05-08T03:35:23.232Z,98.18
2023-05-08T03:36:23.205Z,98.18
2023-05-08T03:37:23.196Z,98.18
2023-05-08T03:38:23.201Z,98.18
2023-05-08T03:39:23.162Z,98.28
2023-05-08T03:40:23.156Z,98.28
2023-05-08T03:41:23.161Z,98.28
2023-05-08T03:42:23.127Z,98.28
2023-05-08T03:43:23.139Z,98.28
2023-05-08T03:44:23.100Z,98.39
2023-05-08T03:45:23.084Z,98.39
2023-05-08T03:46:23.135Z,98.39
2023-05-08T03:47:23.096Z,98.49
2023-05-08T03:48:23.045Z,98.49
2023-05-08T03:49:23.194Z,98.49
2023-05-08T03:50:23.018Z,98.49
2023-05-08T03:51:23.016Z,98.49
2023-05-08T03:52:22.993Z,98.59
2023-05-08T03:53:22.979Z,98.59
2023-05-08T03:54:23.028Z,98.59
2023-05-08T03:55:22.965Z,98.59
2023-05-08T03:56:25.307Z,98.69
2023-05-08T03:57:22.940Z,98.69
2023-05-08T03:58:22.923Z,98.79
2023-05-08T03:59:22.973Z,98.90
2023-05-08T04:00:22.945Z,98.90
2023-05-08T04:01:22.892Z,99.00
2023-05-08T04:02:22.982Z,99.00
2023-05-08T04:03:23.004Z,99.00
2023-05-08T04:04:22.862Z,99.00
2023-05-08T04:05:22.837Z,99.00
2023-05-08T04:06:22.874Z,99.00
2023-05-08T04:07:22.825Z,99.00
2023-05-08T04:08:22.808Z,99.00
2023-05-08T04:09:22.799Z,99.00
2023-05-08T04:10:22.776Z,99.00
2023-05-08T04:11:22.833Z,99.00
2023-05-08T04:12:22.762Z,99.10
2023-05-08T04:13:22.828Z,99.10
2023-05-08T04:14:22.730Z,99.10
2023-05-08T04:15:22.708Z,99.10
2023-05-08T04:16:22.801Z,99.10
2023-05-08T04:17:22.751Z,99.10
2023-05-08T04:18:22.702Z,99.10
2023-05-08T04:19:22.672Z,99.20
2023-05-08T04:20:22.673Z,99.20
2023-05-08T04:21:22.643Z,99.20
2023-05-08T04:22:22.652Z,99.30
2023-05-08T04:23:22.617Z,99.30
2023-05-08T04:24:22.628Z,99.41
2023-05-08T04:25:22.589Z,99.41
2023-05-08T04:26:22.575Z,99.51
2023-05-08T04:27:22.602Z,99.61
2023-05-08T04:28:22.576Z,99.61
2023-05-08T04:29:22.563Z,99.71
2023-05-08T04:30:22.551Z,99.81
2023-05-08T04:31:22.583Z,99.81
2023-05-08T04:32:22.510Z,99.81
2023-05-08T04:33:22.593Z,99.81
2023-05-08T04:34:22.475Z,99.81
2023-05-08T04:35:22.494Z,99.81
2023-05-08T04:36:22.452Z,99.81
2023-05-08T04:37:22.434Z,99.81
2023-05-08T04:38:22.430Z,99.81
2023-05-08T04:39:22.482Z,99.81
2023-05-08T04:40:22.411Z,99.81
2023-05-08T04:41:22.429Z,99.81
2023-05-08T04:42:22.402Z,99.81
2023-05-08T04:43:22.378Z,99.81
2023-05-08T04:44:22.360Z,99.81
2023-05-08T04:45:22.350Z,99.81
2023-05-08T04:46:22.407Z,99.81
2023-05-08T04:47:22.326Z,99.81
2023-05-08T04:48:22.296Z,99.81
2023-05-08T04:49:22.329Z,99.81
2023-05-08T04:50:22.299Z,99.91
2023-05-08T04:51:22.302Z,99.91
2023-05-08T04:52:22.265Z,99.91
2023-05-08T04:53:22.234Z,99.91
2023-05-08T04:54:22.228Z,99.91
2023-05-08T04:55:22.222Z,99.91
2023-05-08T04:56:22.206Z,99.91
2023-05-08T04:57:22.229Z,99.91
2023-05-08T04:58:22.256Z,99.87
2023-05-08T04:59:22.172Z,99.87
2023-05-08T05:00:22.164Z,99.87
2023-05-08T05:01:22.190Z,99.87
2023-05-08T05:02:22.179Z,99.87
2023-05-08T05:03:22.147Z,99.87
2023-05-08T05:04:22.101Z,99.87
2023-05-08T05:05:22.139Z,99.97
2023-05-08T05:06:22.092Z,99.97
2023-05-08T05:07:22.089Z,99.97
2023-05-08T05:08:22.053Z,99.99
2023-05-08T05:09:22.039Z,99.99
2023-05-08T05:10:22.016Z,99.99
2023-05-08T05:11:22.013Z,99.99
2023-05-08T05:12:22.016Z,99.99
2023-05-08T05:13:22.156Z,99.99
2023-05-08T05:14:21.976Z,99.99
2023-05-08T05:15:21.955Z,99.99
2023-05-08T05:16:22.083Z,99.99
2023-05-08T05:17:21.957Z,99.99
2023-05-08T05:18:21.925Z,99.99
2023-05-08T05:19:21.926Z,99.99
2023-05-08T05:20:21.908Z,99.99
2023-05-08T05:21:21.888Z,99.98
2023-05-08T05:22:21.875Z,99.98
2023-05-08T05:23:21.916Z,99.98
2023-05-08T05:24:21.862Z,99.98
2023-05-08T05:25:21.874Z,99.88
2023-05-08T05:26:21.861Z,99.88
2023-05-08T05:27:21.805Z,99.88
2023-05-08T05:28:21.822Z,99.67
2023-05-08T05:29:21.799Z,99.57
2023-05-08T05:30:21.782Z,99.47
2023-05-08T05:31:21.777Z,99.32
2023-05-08T05:32:21.773Z,99.32
2023-05-08T05:33:21.772Z,99.22
2023-05-08T05:34:21.723Z,99.22
2023-05-08T05:35:23.047Z,99.22
2023-05-08T05:36:21.712Z,99.22
2023-05-08T05:37:21.672Z,99.11
2023-05-08T05:38:21.681Z,99.11
2023-05-08T05:39:21.654Z,99.11
2023-05-08T05:40:21.659Z,99.02
2023-05-08T05:41:21.663Z,98.86
2023-05-08T05:42:21.664Z,98.86
2023-05-08T05:43:21.665Z,98.86
2023-05-08T05:44:21.597Z,98.77
2023-05-08T05:45:21.597Z,98.77
2023-05-08T05:46:21.592Z,98.77
2023-05-08T05:47:21.562Z,98.77
2023-05-08T05:48:21.573Z,98.77
2023-05-08T05:49:21.536Z,98.66
2023-05-08T05:50:21.677Z,98.62
2023-05-08T05:51:21.497Z,98.52
2023-05-08T05:52:21.478Z,98.52
2023-05-08T05:53:21.471Z,98.52
2023-05-08T05:54:21.485Z,98.41
2023-05-08T05:55:21.451Z,98.41
2023-05-08T05:56:21.449Z,98.41
2023-05-08T05:57:21.420Z,98.32
2023-05-08T05:58:21.407Z,98.27
2023-05-08T05:59:21.404Z,98.16
2023-05-08T06:00:21.472Z,98.16
2023-05-08T06:01:21.372Z,98.16
2023-05-08T06:02:21.463Z,98.07
2023-05-08T06:03:21.427Z,98.07
2023-05-08T06:04:21.410Z,98.07
2023-05-08T06:05:21.315Z,98.07
2023-05-08T06:06:21.360Z,98.02
2023-05-08T06:07:21.331Z,98.02
2023-05-08T06:08:21.283Z,98.02
2023-05-08T06:09:21.270Z,98.02
2023-05-08T06:10:21.275Z,98.02
2023-05-08T06:11:21.269Z,98.02
2023-05-08T06:12:21.225Z,97.97
2023-05-08T06:13:21.276Z,97.97
2023-05-08T06:14:21.205Z,97.97
2023-05-08T06:15:21.179Z,97.87
2023-05-08T06:16:21.193Z,97.77
2023-05-08T06:17:21.238Z,97.72
2023-05-08T06:18:21.160Z,97.83
2023-05-08T06:19:21.127Z,97.72
2023-05-08T06:20:21.122Z,97.62
2023-05-08T06:21:21.117Z,97.52
2023-05-08T06:22:21.085Z,97.22
2023-05-08T06:23:21.120Z,97.11
2023-05-08T06:24:21.064Z,96.87
2023-05-08T06:25:21.079Z,96.66
2023-05-08T06:26:23.247Z,96.46
2023-05-08T06:27:21.024Z,96.36
2023-05-08T06:28:21.036Z,96.15
2023-05-08T06:29:21.005Z,95.75
2023-05-08T06:30:20.995Z,95.65
2023-05-08T06:31:21.041Z,95.55
2023-05-08T06:32:21.172Z,95.55
2023-05-08T06:33:20.965Z,95.55
2023-05-08T06:34:20.922Z,95.45
2023-05-08T06:35:20.921Z,95.45
2023-05-08T06:36:20.931Z,95.30
2023-05-08T06:37:20.900Z,95.00
2023-05-08T06:38:20.887Z,94.90
2023-05-08T06:39:20.861Z,94.49
2023-05-08T06:40:20.846Z,93.99
2023-05-08T06:41:20.861Z,93.58
2023-05-08T06:42:20.867Z,93.18
2023-05-08T06:43:20.816Z,92.87
2023-05-08T06:44:20.821Z,92.77
2023-05-08T06:45:20.826Z,92.77
2023-05-08T06:46:20.889Z,92.57
2023-05-08T06:47:20.798Z,92.26
2023-05-08T06:48:20.774Z,92.36
2023-05-08T06:49:20.732Z,92.26
2023-05-08T06:50:20.720Z,92.06
2023-05-08T06:51:20.701Z,91.86
2023-05-08T06:52:20.695Z,91.96
2023-05-08T06:53:20.754Z,92.06
2023-05-08T06:54:20.655Z,92.36
2023-05-08T06:55:20.648Z,92.57
2023-05-08T06:56:20.630Z,92.67
2023-05-08T06:57:20.633Z,92.72
2023-05-08T06:58:20.618Z,92.63
2023-05-08T06:59:20.621Z,92.32
2023-05-08T07:00:20.591Z,92.02
2023-05-08T07:01:20.587Z,91.92
2023-05-08T07:02:20.602Z,92.02
2023-05-08T07:03:20.553Z,92.02
2023-05-08T07:04:20.867Z,92.22
2023-05-08T07:05:20.679Z,92.08
2023-05-08T07:06:20.534Z,91.97
2023-05-08T07:07:20.572Z,91.77
2023-05-08T07:08:20.477Z,92.08
2023-05-08T07:09:20.502Z,91.57
2023-05-08T07:10:20.457Z,91.37
2023-05-08T07:11:20.434Z,91.37
2023-05-08T07:12:20.424Z,91.47
2023-05-08T07:13:20.466Z,91.63
2023-05-08T07:14:20.421Z,91.42
2023-05-08T07:15:25.970Z,91.42
2023-05-08T07:16:21.443Z,91.53
2023-05-08T07:17:20.346Z,91.53
2023-05-08T07:18:20.333Z,91.73
2023-05-08T07:19:22.368Z,91.32
2023-05-08T07:20:20.356Z,91.02
2023-05-08T07:21:20.335Z,90.92
2023-05-08T07:22:20.341Z,90.78
2023-05-08T07:23:20.270Z,90.88
2023-05-08T07:24:20.297Z,90.58
2023-05-08T07:25:20.295Z,90.17
2023-05-08T07:26:20.253Z,89.76
2023-05-08T07:27:20.229Z,89.26
2023-05-08T07:28:20.209Z,88.85
2023-05-08T07:29:20.199Z,88.65
2023-05-08T07:30:20.222Z,88.25
2023-05-08T07:31:20.195Z,88.04
2023-05-08T07:32:20.158Z,87.84
2023-05-08T07:33:20.158Z,87.95
2023-05-08T07:34:20.142Z,87.84
2023-05-08T07:35:20.157Z,87.95
2023-05-08T07:36:20.121Z,88.01
2023-05-08T07:37:20.097Z,87.74
2023-05-08T07:38:20.145Z,87.70
2023-05-08T07:39:20.080Z,87.81
2023-05-08T07:40:20.074Z,87.90
2023-05-08T07:41:20.065Z,87.90
2023-05-08T07:42:20.032Z,87.50
2023-05-08T07:43:20.034Z,86.99
2023-05-08T07:44:20.021Z,86.90
2023-05-08T07:45:20.017Z,86.49
2023-05-08T07:46:20.028Z,86.19
2023-05-08T07:47:19.963Z,86.49
2023-05-08T07:48:19.957Z,86.49
2023-05-08T07:49:19.948Z,86.39
2023-05-08T07:50:19.916Z,86.90
2023-05-08T07:51:19.936Z,86.49
2023-05-08T07:52:19.905Z,86.69
2023-05-08T07:53:19.879Z,86.29
2023-05-08T07:54:19.871Z,86.08
2023-05-08T07:55:19.894Z,85.88
2023-05-08T07:56:19.913Z,85.78
2023-05-08T07:57:19.828Z,85.68
2023-05-08T07:58:20.483Z,85.99
2023-05-08T07:59:19.820Z,86.19
2023-05-08T08:00:19.794Z,86.35
2023-05-08T08:01:19.803Z,86.45
2023-05-08T08:02:19.808Z,86.75
2023-05-08T08:03:19.833Z,86.25
2023-05-08T08:04:19.788Z,85.94
2023-05-08T08:05:19.735Z,85.50
2023-05-08T08:06:19.780Z,85.60
2023-05-08T08:07:19.696Z,85.50
2023-05-08T08:08:19.693Z,84.59
2023-05-08T08:09:19.685Z,84.29
2023-05-08T08:10:19.685Z,84.19
2023-05-08T08:11:19.666Z,84.59
2023-05-08T08:12:19.680Z,85.10
2023-05-08T08:13:19.675Z,85.10
2023-05-08T08:14:19.620Z,85.19
2023-05-08T08:15:19.622Z,85.50
2023-05-08T08:16:19.681Z,85.70
2023-05-08T08:17:19.710Z,85.46
2023-05-08T08:18:19.622Z,84.55
2023-05-08T08:19:19.541Z,83.95
2023-05-08T08:20:19.533Z,83.84
2023-05-08T08:21:19.544Z,84.05
2023-05-08T08:22:19.502Z,83.64
2023-05-08T08:23:19.502Z,83.34
2023-05-08T08:24:19.505Z,83.34
2023-05-08T08:25:19.521Z,83.10
2023-05-08T08:26:19.462Z,83.00
2023-05-08T08:27:19.449Z,83.10
2023-05-08T08:28:19.430Z,83.30
2023-05-08T08:29:19.437Z,82.79
2023-05-08T08:30:19.414Z,82.79
2023-05-08T08:31:19.487Z,83.00
2023-05-08T08:32:19.507Z,83.26
2023-05-08T08:33:19.450Z,83.16
2023-05-08T08:34:19.365Z,82.35
2023-05-08T08:35:19.343Z,82.35
2023-05-08T08:36:19.351Z,82.56
2023-05-08T08:37:19.330Z,83.16
2023-05-08T08:38:19.318Z,83.06
2023-05-08T08:39:19.279Z,83.02
2023-05-08T08:40:19.286Z,82.71
2023-05-08T08:41:19.293Z,81.91
2023-05-08T08:42:19.260Z,82.31
2023-05-08T08:43:19.242Z,82.42
2023-05-08T08:44:19.246Z,82.31
2023-05-08T08:45:19.245Z,81.01
2023-05-08T08:46:19.278Z,81.01
2023-05-08T08:47:19.259Z,80.70
2023-05-08T08:48:19.204Z,81.41
2023-05-08T08:49:19.158Z,81.21
2023-05-08T08:50:19.143Z,81.21
2023-05-08T08:51:19.162Z,81.07
2023-05-08T08:52:19.186Z,80.57
2023-05-08T08:53:19.103Z,79.66
2023-05-08T08:54:19.090Z,79.66
2023-05-08T08:55:19.092Z,79.05
2023-05-08T08:56:19.060Z,79.16
2023-05-08T08:57:19.080Z,78.75
2023-05-08T08:58:19.074Z,78.65
2023-05-08T08:59:19.055Z,79.39
2023-05-08T09:00:19.029Z,79.29
2023-05-08T09:01:19.038Z,79.19
2023-05-08T09:02:19.087Z,79.60
2023-05-08T09:03:19.090Z,79.90
2023-05-08T09:04:19.074Z,79.69
2023-05-08T09:05:18.950Z,79.49
2023-05-08T09:06:18.941Z,79.80
2023-05-08T09:07:19.064Z,79.49
2023-05-08T09:08:18.957Z,79.76
2023-05-08T09:09:18.912Z,79.29
2023-05-08T09:10:18.945Z,79.56
2023-05-08T09:11:18.874Z,80.46
2023-05-08T09:12:18.905Z,80.26
2023-05-08T09:13:19.647Z,80.16
2023-05-08T09:14:18.896Z,80.06
2023-05-08T09:15:18.869Z,79.66
2023-05-08T09:16:18.872Z,79.25
2023-05-08T09:17:18.835Z,79.56
2023-05-08T09:18:18.790Z,79.76
2023-05-08T09:19:19.122Z,79.05
2023-05-08T09:20:18.759Z,78.65
2023-05-08T09:21:18.765Z,78.75
2023-05-08T09:22:18.758Z,79.25
2023-05-08T09:23:18.716Z,79.62
2023-05-08T09:24:18.734Z,78.51
2023-05-08T09:25:18.710Z,78.71
2023-05-08T09:26:18.682Z,78.81
2023-05-08T09:27:18.705Z,79.25
2023-05-08T09:28:18.657Z,79.52
2023-05-08T09:29:18.636Z,80.02
2023-05-08T09:30:18.678Z,80.02
2023-05-08T09:31:18.631Z,79.62
2023-05-08T09:32:18.666Z,79.58
2023-05-08T09:33:18.607Z,78.58
2023-05-08T09:34:18.589Z,78.47
2023-05-08T09:35:18.603Z,77.87
2023-05-08T09:36:18.556Z,77.87
2023-05-08T09:37:18.590Z,78.14
2023-05-08T09:38:18.525Z,77.83
2023-05-08T09:39:18.533Z,77.83
2023-05-08T09:40:18.516Z,77.73
2023-05-08T09:41:18.485Z,78.44
2023-05-08T09:42:18.539Z,77.83
2023-05-08T09:43:18.450Z,77.33
2023-05-08T09:44:18.453Z,76.63
2023-05-08T09:45:18.440Z,76.83
2023-05-08T09:46:18.496Z,77.03
2023-05-08T09:47:18.434Z,77.13
2023-05-08T09:48:18.440Z,77.33
2023-05-08T09:49:18.382Z,77.23
2023-05-08T09:50:18.368Z,77.43
2023-05-08T09:51:18.407Z,77.23
2023-05-08T09:52:18.347Z,77.53
2023-05-08T09:53:18.349Z,77.73
2023-05-08T09:54:18.317Z,77.83
2023-05-08T09:55:18.294Z,77.53
2023-05-08T09:56:18.294Z,76.73
2023-05-08T09:57:18.300Z,76.89
2023-05-08T09:58:18.316Z,77.20
2023-05-08T09:59:18.256Z,76.53
2023-05-08T10:00:18.242Z,77.23
2023-05-08T10:01:19.202Z,77.13
2023-05-08T10:02:18.232Z,77.33
2023-05-08T10:03:18.278Z,77.90
2023-05-08T10:04:18.187Z,78.00
2023-05-08T10:05:18.211Z,77.29
2023-05-08T10:06:18.168Z,77.20
2023-05-08T10:07:18.192Z,77.09
2023-05-08T10:08:18.885Z,77.50
2023-05-08T10:09:18.421Z,77.20
2023-05-08T10:10:18.141Z,76.79
2023-05-08T10:11:18.110Z,76.69
2023-05-08T10:12:18.100Z,77.90
2023-05-08T10:13:18.138Z,77.80
2023-05-08T10:14:18.085Z,78.20
2023-05-08T10:15:18.058Z,78.06
2023-05-08T10:16:18.101Z,77.06
2023-05-08T10:17:18.080Z,77.26
2023-05-08T10:18:18.034Z,77.46
2023-05-08T10:19:17.986Z,77.36
2023-05-08T10:20:19.078Z,77.26
2023-05-08T10:21:18.021Z,77.36
2023-05-08T10:22:17.962Z,77.26
2023-05-08T10:23:17.949Z,77.56
2023-05-08T10:24:17.939Z,77.36
2023-05-08T10:25:17.942Z,77.56
2023-05-08T10:26:17.920Z,77.36
2023-05-08T10:27:17.902Z,77.06
2023-05-08T10:28:17.912Z,76.86
2023-05-08T10:29:17.874Z,75.75
2023-05-08T10:30:17.872Z,75.85
2023-05-08T10:31:17.894Z,75.45
2023-05-08T10:32:17.824Z,75.85
2023-05-08T10:33:17.825Z,75.35
2023-05-08T10:34:17.850Z,75.99
2023-05-08T10:35:17.804Z,76.49
2023-05-08T10:36:17.793Z,76.19
2023-05-08T10:37:17.769Z,76.39
2023-05-08T10:38:17.803Z,76.59
2023-05-08T10:39:18.061Z,76.79
2023-05-08T10:40:17.769Z,76.79
2023-05-08T10:41:17.727Z,77.53
2023-05-08T10:42:17.703Z,77.73
2023-05-08T10:43:17.697Z,77.13
2023-05-08T10:44:17.690Z,77.33
2023-05-08T10:45:17.673Z,77.73
2023-05-08T10:46:17.696Z,78.23
2023-05-08T10:47:17.665Z,78.03
2023-05-08T10:48:17.633Z,77.23
2023-05-08T10:49:17.645Z,77.94
2023-05-08T10:50:17.896Z,78.03
2023-05-08T10:51:18.476Z,78.03
2023-05-08T10:52:17.618Z,77.53
2023-05-08T10:53:17.571Z,77.59
2023-05-08T10:54:17.596Z,77.59
2023-05-08T10:55:17.569Z,77.39
2023-05-08T10:56:17.526Z,77.29
2023-05-08T10:57:17.530Z,77.39
2023-05-08T10:58:17.572Z,77.09
2023-05-08T10:59:17.534Z,77.36
2023-05-08T11:00:17.523Z,76.76
2023-05-08T11:01:17.563Z,76.45
2023-05-08T11:02:17.531Z,75.65
2023-05-08T11:03:30.631Z,75.45
2023-05-08T11:04:18.531Z,76.05
2023-05-08T11:05:17.402Z,76.25
2023-05-08T11:06:17.414Z,76.25
2023-05-08T11:07:17.375Z,74.85
2023-05-08T11:08:17.449Z,75.25
2023-05-08T11:09:17.446Z,76.56
2023-05-08T11:10:17.402Z,76.72
2023-05-08T11:11:17.331Z,75.82
2023-05-08T11:12:17.307Z,74.61
2023-05-08T11:13:17.366Z,74.91
2023-05-08T11:14:17.339Z,75.58
2023-05-08T11:15:17.264Z,74.57
2023-05-08T11:16:17.333Z,73.47
2023-05-08T11:17:17.279Z,74.18
2023-05-08T11:18:17.248Z,74.37
2023-05-08T11:19:17.389Z,73.97
2023-05-08T11:20:17.526Z,74.74
2023-05-08T11:21:17.196Z,74.44
2023-05-08T11:22:17.287Z,71.43
2023-05-08T11:23:17.178Z,72.03
2023-05-08T11:24:17.161Z,71.33
2023-05-08T11:25:17.182Z,70.93
2023-05-08T11:26:17.170Z,71.73
2023-05-08T11:27:17.125Z,72.74
2023-05-08T11:28:17.108Z,71.83
2023-05-08T11:29:17.103Z,71.73
2023-05-08T11:30:17.126Z,72.53
2023-05-08T11:31:17.081Z,70.89
2023-05-08T11:32:17.124Z,71.50
2023-05-08T11:33:17.076Z,71.90
2023-05-08T11:34:17.023Z,71.50
2023-05-08T11:35:17.017Z,70.89
2023-05-08T11:36:17.021Z,71.59
2023-05-08T11:37:16.995Z,71.00
2023-05-08T11:38:17.009Z,71.09
2023-05-08T11:39:16.978Z,71.50
2023-05-08T11:40:16.950Z,71.39
2023-05-08T11:41:16.952Z,72.16
2023-05-08T11:42:17.196Z,71.26
2023-05-08T11:43:16.904Z,70.26
2023-05-08T11:44:16.935Z,70.06
2023-05-08T11:45:16.911Z,70.76
2023-05-08T11:46:17.063Z,70.39
2023-05-08T11:47:16.910Z,71.39
2023-05-08T11:48:16.867Z,71.80
2023-05-08T11:49:17.440Z,71.00
2023-05-08T11:50:17.059Z,71.30
2023-05-08T11:51:16.859Z,71.90
2023-05-08T11:52:16.792Z,71.90
2023-05-08T11:53:16.793Z,71.09
2023-05-08T11:54:16.776Z,71.30
2023-05-08T11:55:17.693Z,70.89
2023-05-08T11:56:16.769Z,71.00
2023-05-08T11:57:16.726Z,71.09
2023-05-08T11:58:16.725Z,71.59
2023-05-08T11:59:16.728Z,71.39
2023-05-08T12:00:17.145Z,71.20
2023-05-08T12:01:16.705Z,71.70
2023-05-08T12:02:16.727Z,71.00
2023-05-08T12:03:16.825Z,70.66
2023-05-08T12:04:16.992Z,69.76
2023-05-08T12:05:16.652Z,70.06
2023-05-08T12:06:16.676Z,70.06
2023-05-08T12:07:16.626Z,70.76
2023-05-08T12:08:16.600Z,69.96
2023-05-08T12:09:16.593Z,70.53
2023-05-08T12:10:17.388Z,70.32
2023-05-08T12:11:16.619Z,71.33
2023-05-08T12:12:16.552Z,70.39
2023-05-08T12:13:16.593Z,68.89
2023-05-08T12:14:16.538Z,68.09
2023-05-08T12:15:16.520Z,69.49
2023-05-08T12:16:16.544Z,69.09
2023-05-08T12:17:16.569Z,68.39
2023-05-08T12:18:16.483Z,67.46
2023-05-08T12:19:16.525Z,67.66
2023-05-08T12:20:16.862Z,68.16
2023-05-08T12:21:16.435Z,67.86
2023-05-08T12:22:16.442Z,68.46
2023-05-08T12:23:16.399Z,68.86
2023-05-08T12:24:16.400Z,68.86
2023-05-08T12:25:16.521Z,68.46
2023-05-08T12:26:16.361Z,67.66
2023-05-08T12:27:16.376Z,68.16
2023-05-08T12:28:16.333Z,68.26
2023-05-08T12:29:16.348Z,68.36
2023-05-08T12:30:16.993Z,67.99
2023-05-08T12:31:16.370Z,69.99
2023-05-08T12:32:16.330Z,69.19
2023-05-08T12:33:16.322Z,68.09
2023-05-08T12:34:16.286Z,68.09
2023-05-08T12:35:16.268Z,67.79
2023-05-08T12:36:16.235Z,67.29
2023-05-08T12:37:16.254Z,68.39
2023-05-08T12:38:16.220Z,69.86
2023-05-08T12:39:16.187Z,68.66
2023-05-08T12:40:16.247Z,69.06
2023-05-08T12:41:16.194Z,68.82
2023-05-08T12:42:16.149Z,68.73
2023-05-08T12:43:16.135Z,68.52
2023-05-08T12:44:16.144Z,66.13
2023-05-08T12:45:16.138Z,67.93
2023-05-08T12:46:16.156Z,66.49
2023-05-08T12:47:16.130Z,66.69
2023-05-08T12:48:16.070Z,67.40
2023-05-08T12:49:16.061Z,65.99
2023-05-08T12:50:16.303Z,65.29
2023-05-08T12:51:16.031Z,65.39
2023-05-08T12:52:16.057Z,66.76